createdAt,value
2018-06-14T00:02:06.101Z,95820.06
2018-06-14T00:04:35.176Z,95816.09
2018-06-14T00:07:04.177Z,95823.37
2018-06-14T00:09:33.170Z,95825.33
2018-06-14T00:12:01.887Z,95824.22
2018-06-14T00:14:30.563Z,95826.61
2018-06-14T00:16:59.498Z,95824.44
2018-06-14T00:19:28.303Z,95826.89
2018-06-14T00:21:57.003Z,95823.21
2018-06-14T00:24:25.854Z,95828.41
2018-06-14T00:26:54.831Z,95825.80
2018-06-14T00:29:23.566Z,95826.20
2018-06-14T00:31:52.513Z,95825.39
2018-06-14T00:34:21.120Z,95829.19
2018-06-14T00:36:49.959Z,95831.05
2018-06-14T00:39:18.750Z,95824.84
2018-06-14T00:41:47.692Z,95829.97
2018-06-14T00:44:16.706Z,95833.72
2018-06-14T00:46:45.826Z,95838.16
2018-06-14T00:49:20.591Z,95835.17
2018-06-14T00:51:49.622Z,95836.05
2018-06-14T00:54:18.747Z,95832.67
2018-06-14T00:56:58.518Z,95834.19
2018-06-14T00:59:27.539Z,95838.06
2018-06-14T01:01:56.482Z,95845.98
2018-06-14T01:04:25.383Z,95840.98
2018-06-14T01:06:54.428Z,95848.05
2018-06-14T01:09:23.386Z,95849.97
2018-06-14T01:11:52.381Z,95851.73
2018-06-14T01:14:21.301Z,95850.13
2018-06-14T01:16:56.727Z,95849.49
2018-06-14T01:19:25.714Z,95860.98
2018-06-14T01:21:54.683Z,95853.78
2018-06-14T01:24:23.571Z,95851.52
2018-06-14T01:26:55.249Z,95851.58
2018-06-14T01:29:24.477Z,95842.88
2018-06-14T01:31:53.471Z,95845.52
2018-06-14T01:34:22.439Z,95851.45
2018-06-14T01:36:51.399Z,95846.73
2018-06-14T01:39:20.409Z,95842.85
2018-06-14T01:41:49.440Z,95855.45
2018-06-14T01:44:18.377Z,95861.25
2018-06-14T01:46:47.347Z,95860.02
2018-06-14T01:49:16.339Z,95862.63
2018-06-14T01:51:45.304Z,95862.82
2018-06-14T01:54:14.183Z,95868.83
2018-06-14T01:56:43.171Z,95866.38
2018-06-14T01:59:12.248Z,95867.95
2018-06-14T02:01:41.248Z,95868.27
2018-06-14T02:04:09.919Z,95869.25
2018-06-14T02:06:38.897Z,95871.01
2018-06-14T02:09:08.844Z,95873.11
2018-06-14T02:11:37.973Z,95868.65
2018-06-14T02:14:07.120Z,95871.52
2018-06-14T02:16:36.183Z,95870.88
2018-06-14T02:19:05.195Z,95864.98
2018-06-14T02:21:34.171Z,95869.87
2018-06-14T02:24:03.198Z,95871.06
2018-06-14T02:26:32.183Z,95881.38
2018-06-14T02:29:01.264Z,95881.97
2018-06-14T02:31:30.327Z,95878.61
2018-06-14T02:33:59.303Z,95877.67
2018-06-14T02:36:28.339Z,95879.08
2018-06-14T02:38:57.310Z,95876.45
2018-06-14T02:41:26.269Z,95876.84
2018-06-14T02:43:55.224Z,95868.86
2018-06-14T02:46:23.908Z,95869.33
2018-06-14T02:48:52.541Z,95867.22
2018-06-14T02:51:21.324Z,95871.72
2018-06-14T02:53:50.338Z,95872.66
2018-06-14T02:56:19.292Z,95873.95
2018-06-14T02:58:52.805Z,95873.56
2018-06-14T03:01:21.545Z,95870.42
2018-06-14T03:03:50.227Z,95870.63
2018-06-14T03:06:18.925Z,95874.70
2018-06-14T03:08:47.644Z,95874.81
2018-06-14T03:11:16.272Z,95869.33
2018-06-14T03:13:45.120Z,95867.06
2018-06-14T03:16:14.005Z,95872.34
2018-06-14T03:18:42.990Z,95867.61
2018-06-14T03:21:11.948Z,95872.91
2018-06-14T03:23:40.950Z,95871.48
2018-06-14T03:26:10.117Z,95876.08
2018-06-14T03:28:39.099Z,95871.16
2018-06-14T03:31:08.057Z,95871.71
2018-06-14T03:33:36.702Z,95876.45
2018-06-14T03:36:05.502Z,95875.00
2018-06-14T03:38:34.205Z,95876.52
2018-06-14T03:41:02.821Z,95869.72
2018-06-14T03:43:31.474Z,95874.92
2018-06-14T03:46:00.438Z,95880.23
2018-06-14T03:48:29.418Z,95883.38
2018-06-14T03:50:58.437Z,95885.71
2018-06-14T03:53:27.409Z,95887.61
2018-06-14T03:55:56.412Z,95888.80
2018-06-14T03:58:25.262Z,95895.45
2018-06-14T04:00:54.219Z,95890.18
2018-06-14T04:03:23.139Z,95893.89
2018-06-14T04:05:52.053Z,95889.47
2018-06-14T04:08:21.497Z,95890.19
2018-06-14T04:10:50.463Z,95894.69
2018-06-14T04:13:19.461Z,95892.00
2018-06-14T04:15:48.416Z,95898.88
2018-06-14T04:18:17.379Z,95902.49
2018-06-14T04:20:46.339Z,95911.87
2018-06-14T04:23:15.268Z,95909.87
2018-06-14T04:25:44.221Z,95912.75
2018-06-14T04:28:13.156Z,95915.78
2018-06-14T04:30:42.077Z,95913.20
2018-06-14T04:33:11.007Z,95909.95
2018-06-14T04:35:39.965Z,95912.05
2018-06-14T04:38:08.870Z,95909.79
2018-06-14T04:40:37.923Z,95910.78
2018-06-14T04:43:07.037Z,95908.62
2018-06-14T04:45:35.863Z,95907.74
2018-06-14T04:48:04.861Z,95902.52
2018-06-14T04:50:33.836Z,95906.41
2018-06-14T04:53:02.650Z,95906.41
2018-06-14T04:55:31.500Z,95906.09
2018-06-14T04:58:00.406Z,95905.83
2018-06-14T05:00:29.181Z,95910.63
2018-06-14T05:02:57.868Z,95907.37
2018-06-14T05:05:26.878Z,95918.58
2018-06-14T05:07:55.856Z,95920.74
2018-06-14T05:10:24.869Z,95923.63
2018-06-14T05:12:53.797Z,95923.28
2018-06-14T05:15:22.779Z,95924.27
2018-06-14T05:17:51.721Z,95926.73
2018-06-14T05:20:20.626Z,95928.53
2018-06-14T05:22:49.602Z,95928.33
2018-06-14T05:25:18.668Z,95926.09
2018-06-14T05:27:47.596Z,95929.31
2018-06-14T05:30:16.755Z,95928.73
2018-06-14T05:32:45.384Z,95937.35
2018-06-14T05:35:14.217Z,95932.76
2018-06-14T05:37:43.184Z,95935.50
2018-06-14T05:40:12.125Z,95932.20
2018-06-14T05:42:41.183Z,95936.42
2018-06-14T05:45:10.129Z,95937.14
2018-06-14T05:47:39.235Z,95938.86
2018-06-14T05:50:11.909Z,95942.78
2018-06-14T05:52:41.001Z,95936.58
2018-06-14T05:55:09.951Z,95944.53
2018-06-14T05:57:38.939Z,95942.34
2018-06-14T06:00:11.743Z,95949.86
2018-06-14T06:02:40.549Z,95948.73
2018-06-14T06:05:09.219Z,95953.27
2018-06-14T06:07:38.176Z,95956.05
2018-06-14T06:10:07.481Z,95956.36
2018-06-14T06:12:36.605Z,95955.58
2018-06-14T06:15:06.071Z,95959.02
2018-06-14T06:17:35.053Z,95959.45
2018-06-14T06:20:03.851Z,95967.04
2018-06-14T06:22:32.650Z,95965.28
2018-06-14T06:25:02.446Z,95969.63
2018-06-14T06:27:31.153Z,95962.23
2018-06-14T06:30:00.109Z,95967.91
2018-06-14T06:32:29.196Z,95965.05
2018-06-14T06:34:58.198Z,95963.52
2018-06-14T06:37:26.949Z,95969.12
2018-06-14T06:39:56.480Z,95967.55
2018-06-14T06:42:25.129Z,95972.25
2018-06-14T06:44:53.985Z,95976.28
2018-06-14T06:47:22.969Z,95971.66
2018-06-14T06:49:52.175Z,95978.12
2018-06-14T06:52:21.172Z,95981.48
2018-06-14T06:54:50.412Z,95975.09
2018-06-14T06:57:19.216Z,95978.34
2018-06-14T06:59:49.430Z,95981.23
2018-06-14T07:02:18.342Z,95981.14
2018-06-14T07:04:47.294Z,95983.44
2018-06-14T07:07:16.144Z,95981.14
2018-06-14T07:09:45.119Z,95985.59
2018-06-14T07:12:14.070Z,95993.44
2018-06-14T07:14:42.999Z,95984.39
2018-06-14T07:17:12.001Z,95985.23
2018-06-14T07:19:40.968Z,95984.63
2018-06-14T07:22:09.883Z,95979.75
2018-06-14T07:24:38.832Z,95987.67
2018-06-14T07:27:07.883Z,95989.16
2018-06-14T07:29:36.897Z,95989.50
2018-06-14T07:32:05.943Z,95996.14
2018-06-14T07:34:34.860Z,95998.20
2018-06-14T07:37:03.814Z,96000.84
2018-06-14T07:39:32.713Z,95996.77
2018-06-14T07:42:01.487Z,96002.80
2018-06-14T07:44:31.347Z,96004.55
2018-06-14T07:47:00.351Z,96004.22
2018-06-14T07:49:29.336Z,96014.69
2018-06-14T07:51:58.251Z,96011.80
2018-06-14T07:54:26.860Z,96015.05
2018-06-14T07:56:55.954Z,96016.98
2018-06-14T07:59:24.733Z,96020.75
2018-06-14T08:01:54.266Z,96020.41
2018-06-14T08:04:23.089Z,96022.03
2018-06-14T08:06:51.587Z,96018.00
2018-06-14T08:09:20.424Z,96011.70
2018-06-14T08:11:49.217Z,96008.97
2018-06-14T08:14:17.992Z,96004.30
2018-06-14T08:16:46.654Z,96011.91
2018-06-14T08:19:15.533Z,96004.94
2018-06-14T08:21:44.326Z,96010.92
2018-06-14T08:24:13.120Z,96000.74
2018-06-14T08:26:41.973Z,96006.41
2018-06-14T08:29:10.864Z,96004.11
2018-06-14T08:31:45.166Z,96001.94
2018-06-14T08:34:14.113Z,96000.91
2018-06-14T08:36:43.024Z,96000.38
2018-06-14T08:39:11.907Z,96003.28
2018-06-14T08:41:40.827Z,96001.83
2018-06-14T08:44:09.737Z,96003.29
2018-06-14T08:46:41.449Z,96005.20
2018-06-14T08:49:10.549Z,96006.67
2018-06-14T08:51:39.689Z,95994.11
2018-06-14T08:54:09.014Z,95990.44
2018-06-14T08:56:38.162Z,95998.52
2018-06-14T08:59:07.281Z,96000.56
2018-06-14T09:01:36.557Z,95997.62
2018-06-14T09:04:06.063Z,95996.14
2018-06-14T09:06:35.212Z,95998.92
2018-06-14T09:09:09.877Z,96009.77
2018-06-14T09:11:39.487Z,96008.69
2018-06-14T09:14:09.157Z,96013.53
2018-06-14T09:16:38.886Z,96014.14
2018-06-14T09:19:08.172Z,96009.92
2018-06-14T09:21:54.222Z,96013.88
2018-06-14T09:24:23.217Z,96017.30
2018-06-14T09:26:52.224Z,96013.22
2018-06-14T09:29:21.086Z,96018.01
2018-06-14T09:31:50.678Z,96025.52
2018-06-14T09:34:20.030Z,96021.44
2018-06-14T09:36:49.185Z,96021.78
2018-06-14T09:39:18.126Z,96021.63
2018-06-14T09:41:47.004Z,96028.11
2018-06-14T09:44:15.870Z,96028.34
2018-06-14T09:46:44.965Z,96026.09
2018-06-14T09:49:16.131Z,96018.27
2018-06-14T09:51:46.506Z,96022.14
2018-06-14T09:54:15.503Z,96024.05
2018-06-14T09:56:44.873Z,96015.59
2018-06-14T09:59:14.645Z,96020.00
2018-06-14T10:01:43.592Z,96027.39
2018-06-14T10:04:12.386Z,96025.14
2018-06-14T10:06:41.508Z,96021.54
2018-06-14T10:09:12.065Z,96024.56
2018-06-14T10:11:41.569Z,96033.66
2018-06-14T10:14:10.887Z,96029.39
2018-06-14T10:16:39.829Z,96029.22
2018-06-14T10:19:08.883Z,96027.61
2018-06-14T10:21:38.222Z,96033.80
2018-06-14T10:24:07.451Z,96033.81
2018-06-14T10:26:36.604Z,96034.31
2018-06-14T10:29:05.713Z,96028.48
2018-06-14T10:31:38.227Z,96034.32
2018-06-14T10:34:07.680Z,96034.16
2018-06-14T10:36:37.010Z,96034.49
2018-06-14T10:39:07.804Z,96032.85
2018-06-14T10:41:37.158Z,96035.58
2018-06-14T10:44:06.281Z,96030.37
2018-06-14T10:46:35.460Z,96033.89
2018-06-14T10:49:04.800Z,96032.89
2018-06-14T10:51:33.453Z,96032.75
2018-06-14T10:54:02.114Z,96033.23
2018-06-14T10:56:30.807Z,96024.79
2018-06-14T10:58:59.736Z,96027.73
2018-06-14T11:01:29.405Z,96026.40
2018-06-14T11:03:59.116Z,96025.15
2018-06-14T11:06:28.156Z,96024.66
2018-06-14T11:08:57.326Z,96021.86
2018-06-14T11:11:26.397Z,96022.97
2018-06-14T11:13:55.597Z,96018.38
2018-06-14T11:16:24.691Z,96023.55
2018-06-14T11:18:53.657Z,96020.22
2018-06-14T11:21:22.690Z,96024.08
2018-06-14T11:23:51.677Z,96023.13
2018-06-14T11:26:20.722Z,96019.71
2018-06-14T11:28:49.723Z,96025.07
2018-06-14T11:31:18.759Z,96019.09
2018-06-14T11:33:47.679Z,96018.45
2018-06-14T11:36:16.624Z,96012.65
2018-06-14T11:38:46.068Z,96011.97
2018-06-14T11:41:15.252Z,96004.93
2018-06-14T11:43:44.377Z,96002.64
2018-06-14T11:46:13.587Z,96001.97
2018-06-14T11:48:42.832Z,95999.42
2018-06-14T11:51:11.837Z,95995.65
2018-06-14T11:53:40.887Z,95986.33
2018-06-14T11:56:09.969Z,95985.83
2018-06-14T11:58:38.897Z,95983.56
2018-06-14T12:01:08.585Z,95989.41
2018-06-14T12:03:37.610Z,95991.00
2018-06-14T12:06:06.677Z,95989.34
2018-06-14T12:08:35.643Z,95979.11
2018-06-14T12:11:05.094Z,95992.33
2018-06-14T12:13:40.995Z,95989.59
2018-06-14T12:16:09.989Z,95988.27
2018-06-14T12:18:39.457Z,95990.61
2018-06-14T12:21:08.375Z,95991.53
2018-06-14T12:23:37.387Z,95985.17
2018-06-14T12:26:06.399Z,95983.08
2018-06-14T12:28:35.383Z,95981.44
2018-06-14T12:31:04.089Z,95985.34
2018-06-14T12:33:33.102Z,95978.13
2018-06-14T12:36:02.725Z,95981.75
2018-06-14T12:38:32.062Z,95985.50
2018-06-14T12:41:01.149Z,95975.05
2018-06-14T12:43:30.498Z,95980.33
2018-06-14T12:45:59.844Z,95983.59
2018-06-14T12:48:28.967Z,95979.76
2018-06-14T12:50:58.168Z,95977.97
2018-06-14T12:53:27.168Z,95976.13
2018-06-14T12:55:57.161Z,95968.05
2018-06-14T12:58:26.592Z,95966.08
2018-06-14T13:00:55.757Z,95959.36
2018-06-14T13:03:24.931Z,95968.63
2018-06-14T13:05:54.003Z,95965.91
2018-06-14T13:08:23.137Z,95972.41
2018-06-14T13:10:52.183Z,95968.00
2018-06-14T13:13:21.362Z,95968.23
2018-06-14T13:15:50.372Z,95962.85
2018-06-14T13:18:22.655Z,95962.85
2018-06-14T13:20:52.260Z,95971.19
2018-06-14T13:23:21.332Z,95965.44
2018-06-14T13:25:50.791Z,95968.37
2018-06-14T13:28:19.869Z,95974.88
2018-06-14T13:30:49.048Z,95966.81
2018-06-14T13:33:18.044Z,95969.03
2018-06-14T13:35:47.065Z,95970.37
2018-06-14T13:38:16.068Z,95964.46
2018-06-14T13:40:44.946Z,95965.66
2018-06-14T13:43:14.331Z,95973.12
2018-06-14T13:45:43.259Z,95972.12
2018-06-14T13:48:12.591Z,95973.42
2018-06-14T13:50:41.573Z,95973.05
2018-06-14T13:53:10.423Z,95967.37
2018-06-14T13:55:39.348Z,95968.27
2018-06-14T13:58:08.273Z,95962.60
2018-06-14T14:00:37.175Z,95970.91
2018-06-14T14:03:07.024Z,95976.45
2018-06-14T14:05:35.951Z,95969.59
2018-06-14T14:08:04.860Z,95980.78
2018-06-14T14:10:33.772Z,95974.10
2018-06-14T14:13:02.681Z,95976.73
2018-06-14T14:15:31.659Z,95978.16
2018-06-14T14:18:00.702Z,95976.31
2018-06-14T14:20:29.824Z,95980.12
2018-06-14T14:22:58.888Z,95980.91
2018-06-14T14:25:27.845Z,95971.23
2018-06-14T14:27:56.824Z,95969.02
2018-06-14T14:30:25.806Z,95966.77
2018-06-14T14:32:54.777Z,95962.88
2018-06-14T14:35:23.973Z,95961.47
2018-06-14T14:37:52.738Z,95957.87
2018-06-14T14:40:21.632Z,95964.42
2018-06-14T14:42:50.629Z,95957.75
2018-06-14T14:45:19.568Z,95958.50
2018-06-14T14:47:48.722Z,95952.94
2018-06-14T14:50:17.842Z,95950.61
2018-06-14T14:52:46.812Z,95945.08
2018-06-14T14:55:15.905Z,95945.14
2018-06-14T14:57:44.841Z,95947.05
2018-06-14T15:00:13.900Z,95948.48
2018-06-14T15:02:42.949Z,95947.66
2018-06-14T15:05:11.883Z,95944.75
2018-06-14T15:07:40.820Z,95940.79
2018-06-14T15:10:09.768Z,95946.32
2018-06-14T15:12:38.717Z,95948.55
2018-06-14T15:15:07.696Z,95945.23
2018-06-14T15:17:36.754Z,95950.86
2018-06-14T15:20:05.747Z,95945.75
2018-06-14T15:22:35.268Z,95947.31
2018-06-14T15:25:04.239Z,95947.10
2018-06-14T15:27:33.249Z,95949.56
2018-06-14T15:30:02.605Z,95951.25
2018-06-14T15:32:31.982Z,95947.95
2018-06-14T15:35:01.421Z,95948.65
2018-06-14T15:37:30.374Z,95955.06
2018-06-14T15:39:59.325Z,95949.03
2018-06-14T15:42:28.300Z,95944.14
2018-06-14T15:44:57.230Z,95943.93
2018-06-14T15:47:26.283Z,95942.27
2018-06-14T15:49:55.355Z,95945.58
2018-06-14T15:52:24.419Z,95941.70
2018-06-14T15:55:04.293Z,95944.50
2018-06-14T15:57:33.355Z,95945.06
2018-06-14T16:00:02.299Z,95951.28
2018-06-14T16:02:31.280Z,95949.39
2018-06-14T16:05:00.489Z,95938.72
2018-06-14T16:07:29.431Z,95942.11
2018-06-14T16:09:58.426Z,95939.00
2018-06-14T16:12:27.430Z,95941.04
2018-06-14T16:14:56.497Z,95942.29
2018-06-14T16:17:25.449Z,95942.05
2018-06-14T16:19:54.380Z,95944.08
2018-06-14T16:22:23.323Z,95946.80
2018-06-14T16:24:52.311Z,95938.73
2018-06-14T16:27:21.309Z,95933.41
2018-06-14T16:29:50.289Z,95938.37
2018-06-14T16:32:19.265Z,95937.98
2018-06-14T16:34:48.200Z,95934.18
2018-06-14T16:37:17.397Z,95934.62
2018-06-14T16:39:46.582Z,95935.87
2018-06-14T16:42:15.671Z,95933.24
2018-06-14T16:44:45.376Z,95938.73
2018-06-14T16:47:14.510Z,95938.27
2018-06-14T16:49:43.681Z,95928.91
2018-06-14T16:52:12.782Z,95926.67
2018-06-14T16:54:41.715Z,95935.79
2018-06-14T16:57:10.744Z,95940.20
2018-06-14T16:59:39.937Z,95938.39
2018-06-14T17:02:08.953Z,95937.45
2018-06-14T17:04:37.970Z,95947.38
2018-06-14T17:07:06.958Z,95942.36
2018-06-14T17:09:35.911Z,95944.14
2018-06-14T17:12:05.079Z,95955.63
2018-06-14T17:14:34.684Z,95948.92
2018-06-14T17:17:03.635Z,95948.96
2018-06-14T17:19:32.669Z,95945.88
2018-06-14T17:22:04.836Z,95946.72
2018-06-14T17:24:33.804Z,95947.42
2018-06-14T17:27:04.993Z,95950.38
2018-06-14T17:29:34.511Z,95958.47
2018-06-14T17:32:03.756Z,95960.42
2018-06-14T17:34:32.889Z,95963.19
2018-06-14T17:37:02.002Z,95965.33
2018-06-14T17:39:31.276Z,95974.59
2018-06-14T17:42:00.602Z,95969.16
2018-06-14T17:44:29.833Z,95970.12
2018-06-14T17:46:59.193Z,95974.67
2018-06-14T17:49:28.399Z,95973.23
2018-06-14T17:51:57.646Z,95978.38
2018-06-14T17:54:26.536Z,95978.27
2018-06-14T17:56:55.514Z,95974.57
2018-06-14T17:59:24.505Z,95973.33
2018-06-14T18:01:53.542Z,95975.09
2018-06-14T18:04:22.860Z,95970.55
2018-06-14T18:06:52.070Z,95970.08
2018-06-14T18:09:21.470Z,95966.88
2018-06-14T18:11:50.780Z,95974.15
2018-06-14T18:14:19.942Z,95974.19
2018-06-14T18:16:48.982Z,95979.03
2018-06-14T18:19:18.099Z,95977.09
2018-06-14T18:21:47.132Z,95975.80
2018-06-14T18:24:16.185Z,95972.38
2018-06-14T18:26:45.195Z,95971.77
2018-06-14T18:29:14.215Z,95980.20
2018-06-14T18:31:43.186Z,95980.54
2018-06-14T18:34:12.979Z,95980.58
2018-06-14T18:36:42.116Z,95982.52
2018-06-14T18:39:11.984Z,95980.27
2018-06-14T18:41:40.961Z,95976.89
2018-06-14T18:44:10.032Z,95972.88
2018-06-14T18:46:39.911Z,95976.73
2018-06-14T18:49:08.999Z,95970.91
2018-06-14T18:51:38.010Z,95978.52
2018-06-14T18:54:07.114Z,95984.34
2018-06-14T18:56:36.145Z,95983.25
2018-06-14T18:59:08.773Z,95986.81
2018-06-14T19:01:37.746Z,95987.61
2018-06-14T19:04:06.867Z,95987.94
2018-06-14T19:06:37.272Z,95988.42
2018-06-14T19:09:08.909Z,95992.14
2018-06-14T19:11:38.687Z,95995.06
2018-06-14T19:14:08.232Z,95994.41
2018-06-14T19:16:37.266Z,96008.37
2018-06-14T19:19:06.334Z,96010.91
2018-06-14T19:21:35.297Z,96015.30
2018-06-14T19:24:04.265Z,96017.55
2018-06-14T19:26:49.071Z,96014.65
2018-06-14T19:29:18.084Z,96016.11
2018-06-14T19:31:47.112Z,96024.19
2018-06-14T19:34:16.157Z,96021.41
2018-06-14T19:36:45.080Z,96026.75
2018-06-14T19:39:14.064Z,96031.63
2018-06-14T19:41:43.064Z,96030.64
2018-06-14T19:44:12.138Z,96029.51
2018-06-14T19:46:41.180Z,96030.98
2018-06-14T19:49:10.181Z,96036.95
2018-06-14T19:51:39.092Z,96041.31
2018-06-14T19:54:08.146Z,96040.17
2018-06-14T19:56:37.101Z,96045.51
2018-06-14T19:59:12.096Z,96048.41
2018-06-14T20:01:41.136Z,96041.77
2018-06-14T20:04:10.148Z,96039.36
2018-06-14T20:06:39.164Z,96040.47
2018-06-14T20:09:09.052Z,96041.78
2018-06-14T20:11:38.028Z,96045.65
2018-06-14T20:14:07.058Z,96045.97
2018-06-14T20:16:36.044Z,96046.63
2018-06-14T20:19:05.141Z,96047.58
2018-06-14T20:21:34.135Z,96044.35
2018-06-14T20:24:03.095Z,96044.83
2018-06-14T20:26:32.073Z,96051.95
2018-06-14T20:29:01.139Z,96050.47
2018-06-14T20:31:30.086Z,96055.02
2018-06-14T20:33:59.033Z,96056.47
2018-06-14T20:36:28.027Z,96053.05
2018-06-14T20:41:47.028Z,96062.44
2018-06-14T20:44:15.982Z,96061.14
2018-06-14T20:46:45.007Z,96064.70
2018-06-14T20:49:13.987Z,96064.70
2018-06-14T20:51:43.031Z,96069.72
2018-06-14T20:54:12.037Z,96067.11
2018-06-14T20:56:41.034Z,96064.81
2018-06-14T20:59:09.989Z,96064.50
2018-06-14T21:01:38.941Z,96073.09
2018-06-14T21:04:08.024Z,96072.42
2018-06-14T21:06:37.071Z,96075.80
2018-06-14T21:09:08.848Z,96073.20
2018-06-14T21:11:38.103Z,96080.77
2018-06-14T21:14:07.165Z,96078.84
2018-06-14T21:16:36.757Z,96080.13
2018-06-14T21:19:05.742Z,96086.41
2018-06-14T21:21:34.701Z,96090.04
2018-06-14T21:24:03.694Z,96092.78
2018-06-14T21:26:32.772Z,96084.71
2018-06-14T21:29:01.776Z,96084.96
2018-06-14T21:31:30.759Z,96085.43
2018-06-14T21:33:59.724Z,96087.39
2018-06-14T21:36:28.691Z,96085.39
2018-06-14T21:38:57.712Z,96082.81
2018-06-14T21:41:26.694Z,96084.96
2018-06-14T21:43:55.686Z,96083.38
2018-06-14T21:46:25.581Z,96087.11
2018-06-14T21:48:54.676Z,96088.78
2018-06-14T21:51:23.702Z,96093.83
2018-06-14T21:53:52.735Z,96090.45
2018-06-14T21:56:21.736Z,96089.79
2018-06-14T21:58:50.756Z,96086.19
2018-06-14T22:01:19.714Z,96094.17
2018-06-14T22:03:56.522Z,96095.81
2018-06-14T22:06:25.858Z,96091.07
2018-06-14T22:08:54.836Z,96098.52
2018-06-14T22:11:23.853Z,96096.75
2018-06-14T22:13:52.839Z,96089.78
2018-06-14T22:16:21.902Z,96094.05
2018-06-14T22:18:50.935Z,96089.97
2018-06-14T22:21:19.908Z,96086.41
2018-06-14T22:23:48.865Z,96094.02
2018-06-14T22:26:17.866Z,96094.88
2018-06-14T22:28:46.829Z,96094.25
2018-06-14T22:31:15.806Z,96092.64
2018-06-14T22:33:55.552Z,96092.59
2018-06-14T22:36:24.644Z,96092.16
2018-06-14T22:38:53.635Z,96082.22
2018-06-14T22:41:22.600Z,96076.63
2018-06-14T22:43:51.679Z,96080.03
2018-06-14T22:46:20.692Z,96079.17
2018-06-14T22:48:49.784Z,96081.48
2018-06-14T22:51:21.032Z,96077.45
2018-06-14T22:53:50.028Z,96076.31
2018-06-14T22:56:19.052Z,96073.53
2018-06-14T22:58:48.206Z,96075.29
2018-06-14T23:02:06.863Z,96077.25
2018-06-14T23:04:35.893Z,96078.58
2018-06-14T23:07:04.871Z,96077.95
2018-06-14T23:10:42.348Z,96081.98
2018-06-14T23:13:12.594Z,96079.95
2018-06-14T23:15:41.491Z,96087.86
2018-06-14T23:18:10.457Z,96085.39
2018-06-14T23:20:39.587Z,96083.13
2018-06-14T23:23:08.930Z,96081.16
2018-06-14T23:25:38.297Z,96074.86
2018-06-14T23:28:07.371Z,96076.06
2018-06-14T23:30:36.674Z,96071.37
2018-06-14T23:33:05.670Z,96071.05
2018-06-14T23:35:34.633Z,96065.72
2018-06-14T23:38:03.643Z,96074.62
2018-06-14T23:40:32.601Z,96069.89
2018-06-14T23:43:02.197Z,96072.66
2018-06-14T23:45:31.225Z,96076.37
2018-06-14T23:48:00.207Z,96073.67
2018-06-14T23:50:29.094Z,96077.08
2018-06-14T23:52:58.042Z,96071.91
2018-06-14T23:55:27.040Z,96066.39
2018-06-14T23:57:56.001Z,96069.80
